createdAt,value
2023-02-23T00:00:21.405Z,99743.16
2023-02-23T00:01:26.998Z,99740.13
2023-02-23T00:02:28.944Z,99744.47
2023-02-23T00:03:30.869Z,99747.38
2023-02-23T00:04:33.196Z,99743.91
2023-02-23T00:05:37.125Z,99733.31
2023-02-23T00:06:39.312Z,99744.13
2023-02-23T00:07:45.934Z,99751.69
2023-02-23T00:08:48.109Z,99746.72
2023-02-23T00:09:50.948Z,99745.88
2023-02-23T00:10:58.542Z,99754.09
2023-02-23T00:12:07.566Z,99749.37
2023-02-23T00:13:11.080Z,99752.59
2023-02-23T00:14:12.999Z,99751.31
2023-02-23T00:15:15.626Z,99758.75
2023-02-23T00:16:22.201Z,99760.75
2023-02-23T00:17:24.478Z,99749.37
2023-02-23T00:18:30.149Z,99757.72
2023-02-23T00:19:33.534Z,99756.91
2023-02-23T00:20:35.560Z,99756.41
2023-02-23T00:21:37.427Z,99766.38
2023-02-23T00:22:41.079Z,99761.28
2023-02-23T00:23:48.132Z,99755.97
2023-02-23T00:24:50.252Z,99759.97
2023-02-23T00:25:52.135Z,99754.47
2023-02-23T00:26:54.241Z,99756.34
2023-02-23T00:27:56.982Z,99756.84
2023-02-23T00:28:58.897Z,99754.34
2023-02-23T00:30:03.332Z,99757.69
2023-02-23T00:31:05.300Z,99759.19
2023-02-23T00:32:07.574Z,99767.56
2023-02-23T00:33:10.107Z,99758.38
2023-02-23T00:34:15.070Z,99765.63
2023-02-23T00:35:17.601Z,99761.25
2023-02-23T00:36:20.320Z,99762.47
2023-02-23T00:37:23.027Z,99763.88
2023-02-23T00:38:25.642Z,99765.63
2023-02-23T00:39:29.419Z,99762.22
2023-02-23T00:40:31.477Z,99759.19
2023-02-23T00:41:33.339Z,99763.50
2023-02-23T00:42:35.846Z,99762.78
2023-02-23T00:43:47.450Z,99764.37
2023-02-23T00:44:49.820Z,99754.44
2023-02-23T00:45:55.744Z,99758.03
2023-02-23T00:46:57.679Z,99759.97
2023-02-23T00:47:59.575Z,99760.41
2023-02-23T00:49:01.981Z,99754.78
2023-02-23T00:50:05.166Z,99755.59
2023-02-23T00:51:07.084Z,99761.53
2023-02-23T00:52:08.929Z,99757.50
2023-02-23T00:53:11.644Z,99763.91
2023-02-23T00:54:15.780Z,99757.06
2023-02-23T00:55:17.707Z,99756.75
2023-02-23T00:56:19.575Z,99763.75
2023-02-23T00:57:22.547Z,99755.94
2023-02-23T00:58:26.142Z,99761.94
2023-02-23T00:59:29.692Z,99762.75
2023-02-23T01:00:32.147Z,99760.72
2023-02-23T01:01:34.502Z,99761.75
2023-02-23T01:02:36.444Z,99758.72
2023-02-23T01:03:40.158Z,99763.53
2023-02-23T01:04:42.327Z,99766.34
2023-02-23T01:05:44.540Z,99766.91
2023-02-23T01:06:46.551Z,99761.16
2023-02-23T01:07:49.317Z,99766.38
2023-02-23T01:08:57.069Z,99761.62
2023-02-23T01:09:59.381Z,99765.00
2023-02-23T01:11:17.534Z,99757.53
2023-02-23T01:12:19.582Z,99762.22
2023-02-23T01:13:22.216Z,99765.00
2023-02-23T01:14:24.291Z,99766.53
2023-02-23T01:15:27.714Z,99761.03
2023-02-23T01:16:32.269Z,99762.16
2023-02-23T01:17:34.143Z,99765.72
2023-02-23T01:18:37.468Z,99762.47
2023-02-23T01:19:39.311Z,99758.41
2023-02-23T01:20:42.442Z,99759.16
2023-02-23T01:21:46.633Z,99760.22
2023-02-23T01:22:51.375Z,99756.44
2023-02-23T01:23:53.918Z,99752.09
2023-02-23T01:24:55.926Z,99754.06
2023-02-23T01:25:58.591Z,99748.09
2023-02-23T01:27:00.484Z,99750.31
2023-02-23T01:28:02.425Z,99749.50
2023-02-23T01:29:13.021Z,99750.63
2023-02-23T01:30:15.331Z,99752.69
2023-02-23T01:31:19.817Z,99756.22
2023-02-23T01:32:22.008Z,99746.62
2023-02-23T01:33:23.892Z,99746.22
2023-02-23T01:34:25.808Z,99748.41
2023-02-23T01:35:28.125Z,99744.66
2023-02-23T01:36:34.210Z,99746.16
2023-02-23T01:37:40.537Z,99751.47
2023-02-23T01:38:43.173Z,99748.87
2023-02-23T01:39:45.034Z,99736.38
2023-02-23T01:40:47.374Z,99749.00
2023-02-23T01:41:51.951Z,99748.63
2023-02-23T01:42:54.014Z,99741.47
2023-02-23T01:44:06.131Z,99748.03
2023-02-23T01:45:27.380Z,99747.25
2023-02-23T01:46:39.225Z,99747.16
2023-02-23T01:47:41.562Z,99748.16
2023-02-23T01:48:43.441Z,99753.44
2023-02-23T01:49:45.428Z,99747.22
2023-02-23T01:50:49.986Z,99751.00
2023-02-23T01:52:11.075Z,99742.19
2023-02-23T01:53:14.015Z,99749.63
2023-02-23T01:54:22.064Z,99736.59
2023-02-23T01:55:25.982Z,99739.75
2023-02-23T01:56:34.500Z,99739.38
2023-02-23T01:57:36.495Z,99746.16
2023-02-23T01:58:45.226Z,99748.25
2023-02-23T01:59:49.874Z,99741.00
2023-02-23T02:00:58.055Z,99751.22
2023-02-23T02:02:00.963Z,99746.22
2023-02-23T02:03:08.772Z,99742.66
2023-02-23T02:04:16.583Z,99741.44
2023-02-23T02:05:19.608Z,99745.94
2023-02-23T02:06:29.312Z,99743.91
2023-02-23T02:07:35.188Z,99743.97
2023-02-23T02:08:44.929Z,99749.50
2023-02-23T02:10:17.550Z,99749.09
2023-02-23T02:11:36.157Z,99741.28
2023-02-23T02:12:44.319Z,99741.44
2023-02-23T02:13:46.501Z,99745.81
2023-02-23T02:14:52.027Z,99742.34
2023-02-23T02:16:02.216Z,99741.31
2023-02-23T02:17:25.804Z,99746.22
2023-02-23T02:18:54.031Z,99740.25
2023-02-23T02:20:33.797Z,99744.78
2023-02-23T02:21:56.796Z,99741.34
2023-02-23T02:23:20.451Z,99746.03
2023-02-23T02:25:12.026Z,99741.25
2023-02-23T02:26:34.321Z,99736.75
2023-02-23T02:27:45.098Z,99737.84
2023-02-23T02:29:11.160Z,99739.09
2023-02-23T02:30:34.912Z,99737.94
2023-02-23T02:31:42.696Z,99739.31
2023-02-23T02:33:32.088Z,99738.59
2023-02-23T02:35:01.636Z,99734.25
2023-02-23T02:36:17.758Z,99744.56
2023-02-23T02:37:39.752Z,99736.22
2023-02-23T02:38:56.559Z,99744.28
2023-02-23T02:40:16.255Z,99735.09
2023-02-23T02:41:21.301Z,99743.56
2023-02-23T02:42:43.678Z,99737.31
2023-02-23T02:44:02.511Z,99744.47
2023-02-23T02:45:14.065Z,99740.63
2023-02-23T02:46:23.635Z,99740.72
2023-02-23T02:47:31.937Z,99735.16
2023-02-23T02:48:52.376Z,99738.50
2023-02-23T02:50:06.889Z,99742.16
2023-02-23T02:51:21.651Z,99742.81
2023-02-23T02:52:35.837Z,99744.41
2023-02-23T02:53:45.523Z,99740.44
2023-02-23T02:55:04.841Z,99734.22
2023-02-23T02:56:08.075Z,99738.94
2023-02-23T02:57:13.031Z,99741.06
2023-02-23T02:58:17.794Z,99741.06
2023-02-23T02:59:38.950Z,99744.66
2023-02-23T03:01:02.521Z,99742.66
2023-02-23T03:02:25.094Z,99743.06
2023-02-23T03:04:08.650Z,99749.91
2023-02-23T03:05:33.119Z,99746.78
2023-02-23T03:07:06.292Z,99744.13
2023-02-23T03:08:41.255Z,99746.72
2023-02-23T03:10:14.992Z,99739.09
2023-02-23T03:11:36.554Z,99744.66
2023-02-23T03:13:19.541Z,99747.00
2023-02-23T03:14:56.835Z,99752.22
2023-02-23T03:17:01.994Z,99742.75
2023-02-23T03:18:48.611Z,99747.94
2023-02-23T03:20:19.013Z,99753.78
2023-02-23T03:21:48.583Z,99753.53
2023-02-23T03:23:08.855Z,99753.00
2023-02-23T03:24:54.446Z,99761.28
2023-02-23T03:26:27.169Z,99757.56
2023-02-23T03:28:11.426Z,99754.25
2023-02-23T03:29:52.680Z,99749.94
2023-02-23T03:31:34.776Z,99751.88
2023-02-23T03:32:59.156Z,99757.09
2023-02-23T03:34:35.329Z,99763.59
2023-02-23T03:36:21.597Z,99760.16
2023-02-23T03:37:51.090Z,99765.50
2023-02-23T03:39:17.587Z,99763.03
2023-02-23T03:40:45.800Z,99761.94
2023-02-23T03:42:08.776Z,99765.03
2023-02-23T03:43:36.499Z,99767.63
2023-02-23T03:45:02.801Z,99770.06
2023-02-23T03:46:27.948Z,99768.72
2023-02-23T03:47:56.387Z,99769.91
2023-02-23T03:49:20.474Z,99772.25
2023-02-23T03:50:50.998Z,99765.53
2023-02-23T03:52:18.456Z,99775.66
2023-02-23T03:53:47.572Z,99765.28
2023-02-23T03:55:17.073Z,99768.56
2023-02-23T03:56:42.555Z,99766.13
2023-02-23T03:58:09.168Z,99770.53
2023-02-23T03:59:34.107Z,99771.97
2023-02-23T04:01:02.108Z,99769.59
2023-02-23T04:02:25.606Z,99769.12
2023-02-23T04:03:49.585Z,99774.72
2023-02-23T04:05:13.170Z,99775.91
2023-02-23T04:06:36.108Z,99767.72
2023-02-23T04:07:59.670Z,99771.97
2023-02-23T04:09:23.242Z,99766.13
2023-02-23T04:10:47.125Z,99766.91
2023-02-23T04:12:19.697Z,99766.69
2023-02-23T04:13:27.114Z,99768.84
2023-02-23T04:14:36.821Z,99776.84
2023-02-23T04:16:01.393Z,99778.44
2023-02-23T04:17:05.342Z,99770.06
2023-02-23T04:18:12.664Z,99772.84
2023-02-23T04:19:15.148Z,99769.59
2023-02-23T04:20:17.111Z,99768.97
2023-02-23T04:21:19.303Z,99763.72
2023-02-23T04:22:22.736Z,99767.97
2023-02-23T04:23:25.519Z,99772.06
2023-02-23T04:24:27.845Z,99764.50
2023-02-23T04:25:30.769Z,99769.84
2023-02-23T04:26:32.668Z,99767.31
2023-02-23T04:27:35.985Z,99762.59
2023-02-23T04:28:37.839Z,99768.09
2023-02-23T04:29:40.162Z,99770.50
2023-02-23T04:30:43.021Z,99764.19
2023-02-23T04:31:45.045Z,99766.22
2023-02-23T04:32:47.054Z,99767.81
2023-02-23T04:33:48.983Z,99766.78
2023-02-23T04:34:51.234Z,99769.22
2023-02-23T04:35:54.432Z,99771.34
2023-02-23T04:36:56.364Z,99767.66
2023-02-23T04:37:59.028Z,99768.19
2023-02-23T04:39:00.906Z,99764.22
2023-02-23T04:40:03.302Z,99768.12
2023-02-23T04:41:05.334Z,99770.22
2023-02-23T04:42:07.198Z,99766.63
2023-02-23T04:43:12.336Z,99775.41
2023-02-23T04:44:14.261Z,99779.22
2023-02-23T04:45:16.411Z,99768.50
2023-02-23T04:46:18.372Z,99773.44
2023-02-23T04:47:20.618Z,99778.50
2023-02-23T04:48:22.662Z,99775.53
2023-02-23T04:49:24.668Z,99780.78
2023-02-23T04:50:27.029Z,99778.63
2023-02-23T04:51:32.294Z,99779.84
2023-02-23T04:52:35.094Z,99777.00
2023-02-23T04:53:38.374Z,99776.41
2023-02-23T04:54:40.817Z,99773.94
2023-02-23T04:55:42.997Z,99772.34
2023-02-23T04:56:44.870Z,99774.19
2023-02-23T04:57:46.838Z,99774.94
2023-02-23T04:58:48.757Z,99773.56
2023-02-23T04:59:50.645Z,99779.94
2023-02-23T05:00:53.065Z,99775.78
2023-02-23T05:01:55.242Z,99769.38
2023-02-23T05:02:57.895Z,99771.97
2023-02-23T05:04:00.443Z,99771.56
2023-02-23T05:05:02.382Z,99774.41
2023-02-23T05:06:04.675Z,99775.59
2023-02-23T05:07:06.605Z,99771.56
2023-02-23T05:08:08.543Z,99769.00
2023-02-23T05:09:10.616Z,99774.31
2023-02-23T05:10:12.521Z,99772.81
2023-02-23T05:11:14.835Z,99773.69
2023-02-23T05:12:16.790Z,99779.06
2023-02-23T05:13:18.689Z,99778.28
2023-02-23T05:14:20.615Z,99783.31
2023-02-23T05:15:22.525Z,99774.41
2023-02-23T05:16:24.748Z,99777.06
2023-02-23T05:17:26.709Z,99781.34
2023-02-23T05:18:28.889Z,99775.84
2023-02-23T05:19:30.791Z,99780.00
2023-02-23T05:20:32.790Z,99777.56
2023-02-23T05:21:35.013Z,99778.38
2023-02-23T05:22:37.801Z,99777.63
2023-02-23T05:23:39.837Z,99789.13
2023-02-23T05:24:42.292Z,99781.13
2023-02-23T05:25:44.192Z,99785.66
2023-02-23T05:26:46.403Z,99781.09
2023-02-23T05:27:48.248Z,99781.09
2023-02-23T05:28:50.149Z,99777.69
2023-02-23T05:29:51.986Z,99781.00
2023-02-23T05:30:53.944Z,99778.03
2023-02-23T05:31:56.158Z,99780.47
2023-02-23T05:32:58.101Z,99782.69
2023-02-23T05:34:00.121Z,99783.31
2023-02-23T05:35:02.631Z,99792.19
2023-02-23T05:36:05.719Z,99785.72
2023-02-23T05:37:07.984Z,99786.53
2023-02-23T05:38:09.855Z,99786.84
2023-02-23T05:39:11.854Z,99785.44
2023-02-23T05:40:14.027Z,99787.87
2023-02-23T05:41:19.788Z,99793.34
2023-02-23T05:42:22.108Z,99784.03
2023-02-23T05:43:24.019Z,99785.59
2023-02-23T05:44:25.941Z,99783.06
2023-02-23T05:45:29.134Z,99786.41
2023-02-23T05:46:32.552Z,99788.91
2023-02-23T05:47:38.618Z,99786.59
2023-02-23T05:48:40.788Z,99791.16
2023-02-23T05:49:43.065Z,99787.16
2023-02-23T05:50:44.923Z,99784.97
2023-02-23T05:51:46.859Z,99787.81
2023-02-23T05:52:49.058Z,99788.59
2023-02-23T05:53:51.333Z,99794.31
2023-02-23T05:54:53.266Z,99796.59
2023-02-23T05:55:55.385Z,99794.25
2023-02-23T05:56:57.243Z,99794.72
2023-02-23T05:57:59.446Z,99794.13
2023-02-23T05:59:02.516Z,99798.91
2023-02-23T06:00:06.238Z,99796.75
2023-02-23T06:01:07.933Z,99792.44
2023-02-23T06:02:10.156Z,99803.37
2023-02-23T06:03:12.060Z,99793.38
2023-02-23T06:04:14.345Z,99797.81
2023-02-23T06:05:16.615Z,99797.56
2023-02-23T06:06:21.995Z,99806.22
2023-02-23T06:07:24.229Z,99810.37
2023-02-23T06:08:26.401Z,99803.56
2023-02-23T06:09:28.265Z,99806.84
2023-02-23T06:10:30.110Z,99807.56
2023-02-23T06:11:32.014Z,99802.28
2023-02-23T06:12:34.260Z,99807.62
2023-02-23T06:13:36.294Z,99805.47
2023-02-23T06:14:38.181Z,99813.62
2023-02-23T06:15:40.929Z,99807.47
2023-02-23T06:16:45.388Z,99809.53
2023-02-23T06:17:47.802Z,99817.16
2023-02-23T06:18:49.826Z,99816.59
2023-02-23T06:19:51.741Z,99817.25
2023-02-23T06:20:54.362Z,99817.09
2023-02-23T06:21:56.216Z,99822.66
2023-02-23T06:22:58.362Z,99818.94
2023-02-23T06:24:00.999Z,99816.09
2023-02-23T06:25:08.808Z,99822.53
2023-02-23T06:26:10.722Z,99825.75
2023-02-23T06:27:14.127Z,99823.16
2023-02-23T06:28:16.419Z,99829.44
2023-02-23T06:29:18.334Z,99833.78
2023-02-23T06:30:20.623Z,99833.00
2023-02-23T06:31:22.833Z,99830.78
2023-02-23T06:32:25.233Z,99830.72
2023-02-23T06:33:27.617Z,99835.13
2023-02-23T06:34:29.897Z,99838.22
2023-02-23T06:35:35.142Z,99836.00
2023-02-23T06:36:37.914Z,99838.88
2023-02-23T06:37:39.805Z,99835.91
2023-02-23T06:38:41.999Z,99840.63
2023-02-23T06:39:43.897Z,99842.47
2023-02-23T06:40:45.927Z,99841.84
2023-02-23T06:41:47.876Z,99837.38
2023-02-23T06:42:50.454Z,99840.56
2023-02-23T06:43:52.829Z,99842.31
2023-02-23T06:44:54.720Z,99837.75
2023-02-23T06:45:56.794Z,99840.09
2023-02-23T06:46:58.642Z,99841.37
2023-02-23T06:48:00.976Z,99842.81
2023-02-23T06:49:03.272Z,99845.06
2023-02-23T06:50:06.854Z,99852.00
2023-02-23T06:51:08.772Z,99843.09
2023-02-23T06:52:13.564Z,99846.66
2023-02-23T06:53:15.521Z,99846.28
2023-02-23T06:54:18.830Z,99852.09
2023-02-23T06:55:20.953Z,99852.09
2023-02-23T06:56:23.175Z,99845.81
2023-02-23T06:57:25.148Z,99843.84
2023-02-23T06:58:28.406Z,99854.47
2023-02-23T06:59:30.571Z,99849.53
2023-02-23T07:00:32.572Z,99849.72
2023-02-23T07:01:34.720Z,99854.72
2023-02-23T07:02:37.554Z,99844.03
2023-02-23T07:03:40.055Z,99852.47
2023-02-23T07:04:43.076Z,99846.72
2023-02-23T07:05:45.101Z,99845.06
2023-02-23T07:06:47.002Z,99848.09
2023-02-23T07:07:48.948Z,99849.94
2023-02-23T07:08:50.860Z,99854.63
2023-02-23T07:09:53.056Z,99852.75
2023-02-23T07:10:55.012Z,99855.94
2023-02-23T07:11:56.873Z,99852.56
2023-02-23T07:12:59.662Z,99859.47
2023-02-23T07:14:02.098Z,99860.94
2023-02-23T07:15:05.112Z,99855.31
2023-02-23T07:16:07.781Z,99866.91
2023-02-23T07:17:12.278Z,99858.84
2023-02-23T07:18:14.507Z,99856.09
2023-02-23T07:19:16.383Z,99865.91
2023-02-23T07:20:19.743Z,99865.31
2023-02-23T07:21:21.950Z,99858.00
2023-02-23T07:22:25.349Z,99857.69
2023-02-23T07:23:27.238Z,99864.06
2023-02-23T07:24:29.286Z,99861.88
2023-02-23T07:25:31.748Z,99865.94
2023-02-23T07:26:33.747Z,99862.09
2023-02-23T07:27:35.869Z,99866.72
2023-02-23T07:28:38.244Z,99862.22
2023-02-23T07:29:40.110Z,99869.13
2023-02-23T07:30:42.491Z,99868.31
2023-02-23T07:31:44.492Z,99867.22
2023-02-23T07:32:46.473Z,99872.28
2023-02-23T07:33:48.399Z,99868.03
2023-02-23T07:34:51.767Z,99865.16
2023-02-23T07:35:55.660Z,99870.72
2023-02-23T07:36:57.553Z,99869.91
2023-02-23T07:37:59.449Z,99865.53
2023-02-23T07:39:01.571Z,99868.56
2023-02-23T07:40:03.941Z,99866.94
2023-02-23T07:41:06.249Z,99865.19
2023-02-23T07:42:08.201Z,99867.19
2023-02-23T07:43:10.425Z,99861.69
2023-02-23T07:44:12.307Z,99859.81
2023-02-23T07:45:14.362Z,99868.69
2023-02-23T07:46:17.436Z,99858.31
2023-02-23T07:47:19.405Z,99861.59
2023-02-23T07:48:21.520Z,99865.16
2023-02-23T07:49:23.403Z,99862.72
2023-02-23T07:50:25.583Z,99859.88
2023-02-23T07:51:28.058Z,99857.22
2023-02-23T07:52:29.995Z,99863.34
2023-02-23T07:53:31.916Z,99864.25
2023-02-23T07:54:34.930Z,99861.78
2023-02-23T07:55:38.532Z,99861.13
2023-02-23T07:56:40.734Z,99857.53
2023-02-23T07:57:42.593Z,99860.75
2023-02-23T07:58:45.061Z,99862.50
2023-02-23T07:59:48.023Z,99862.97
2023-02-23T08:00:50.098Z,99870.03
2023-02-23T08:01:52.445Z,99868.47
2023-02-23T08:02:54.339Z,99861.41
2023-02-23T08:03:56.291Z,99861.59
2023-02-23T08:04:59.070Z,99864.81
2023-02-23T08:06:00.963Z,99869.78
2023-02-23T08:07:03.282Z,99870.50
2023-02-23T08:08:05.216Z,99866.44
2023-02-23T08:09:07.449Z,99873.66
2023-02-23T08:10:10.032Z,99867.75
2023-02-23T08:11:12.104Z,99869.78
2023-02-23T08:12:15.775Z,99868.84
2023-02-23T08:13:17.863Z,99866.28
2023-02-23T08:14:23.566Z,99874.13
2023-02-23T08:15:25.510Z,99869.78
2023-02-23T08:16:32.169Z,99869.47
2023-02-23T08:17:38.374Z,99872.34
2023-02-23T08:18:40.312Z,99871.16
2023-02-23T08:19:42.273Z,99870.53
2023-02-23T08:20:44.183Z,99870.87
2023-02-23T08:21:46.306Z,99867.44
2023-02-23T08:22:55.926Z,99871.81
2023-02-23T08:23:58.903Z,99872.06
2023-02-23T08:25:01.905Z,99875.53
2023-02-23T08:26:04.029Z,99877.25
2023-02-23T08:27:05.909Z,99873.53
2023-02-23T08:28:08.092Z,99877.97
2023-02-23T08:29:10.680Z,99873.81
2023-02-23T08:30:14.287Z,99872.81
2023-02-23T08:31:19.571Z,99870.16
2023-02-23T08:32:22.593Z,99876.56
2023-02-23T08:33:25.018Z,99874.78
2023-02-23T08:34:26.853Z,99878.41
2023-02-23T08:35:31.069Z,99875.72
2023-02-23T08:36:32.983Z,99872.53
2023-02-23T08:37:34.853Z,99874.41
2023-02-23T08:38:37.022Z,99873.31
2023-02-23T08:39:38.984Z,99879.72
2023-02-23T08:40:41.221Z,99876.72
2023-02-23T08:41:43.111Z,99873.09
2023-02-23T08:42:45.073Z,99878.13
2023-02-23T08:43:48.774Z,99871.78
2023-02-23T08:44:50.719Z,99881.44
2023-02-23T08:45:52.609Z,99879.19
2023-02-23T08:46:55.417Z,99879.16
2023-02-23T08:47:57.385Z,99884.81
2023-02-23T08:48:59.580Z,99873.91
2023-02-23T08:50:01.542Z,99878.09
2023-02-23T08:51:03.476Z,99887.00
2023-02-23T08:52:05.417Z,99882.44
2023-02-23T08:53:07.317Z,99879.44
2023-02-23T08:54:14.319Z,99884.88
2023-02-23T08:55:18.405Z,99881.88
2023-02-23T08:56:20.225Z,99883.81
2023-02-23T08:57:22.116Z,99891.84
2023-02-23T08:58:24.025Z,99883.53
2023-02-23T08:59:27.208Z,99888.16
2023-02-23T09:00:29.269Z,99895.22
2023-02-23T09:01:31.273Z,99889.38
2023-02-23T09:02:33.147Z,99894.47
2023-02-23T09:03:38.278Z,99891.84
2023-02-23T09:04:44.778Z,99888.41
2023-02-23T09:05:47.091Z,99899.28
2023-02-23T09:06:50.142Z,99897.59
2023-02-23T09:07:52.012Z,99890.03
2023-02-23T09:08:55.310Z,99888.66
2023-02-23T09:09:57.773Z,99899.50
2023-02-23T09:10:59.658Z,99890.66
2023-02-23T09:12:01.598Z,99884.69
2023-02-23T09:13:03.482Z,99888.28
2023-02-23T09:14:05.335Z,99889.69
2023-02-23T09:15:08.398Z,99891.72
2023-02-23T09:16:10.828Z,99893.50
2023-02-23T09:17:12.921Z,99891.91
2023-02-23T09:18:14.953Z,99889.50
2023-02-23T09:19:16.938Z,99899.31
2023-02-23T09:20:27.100Z,99894.91
2023-02-23T09:21:30.037Z,99894.69
2023-02-23T09:22:32.060Z,99896.91
2023-02-23T09:23:34.978Z,99896.69
2023-02-23T09:24:36.947Z,99892.28
2023-02-23T09:25:45.734Z,99893.34
2023-02-23T09:26:48.584Z,99895.31
2023-02-23T09:27:52.474Z,99897.56
2023-02-23T09:28:54.509Z,99891.72
2023-02-23T09:29:56.420Z,99895.00
2023-02-23T09:30:58.920Z,99894.37
2023-02-23T09:32:01.006Z,99894.37
2023-02-23T09:33:02.977Z,99895.41
2023-02-23T09:34:06.051Z,99897.62
2023-02-23T09:35:08.383Z,99901.22
2023-02-23T09:36:23.692Z,99893.19
2023-02-23T09:37:25.709Z,99904.00
2023-02-23T09:38:27.615Z,99902.81
2023-02-23T09:39:38.243Z,99902.03
2023-02-23T09:40:45.814Z,99897.81
2023-02-23T09:41:56.136Z,99898.38
2023-02-23T09:43:25.061Z,99900.41
2023-02-23T09:44:29.731Z,99896.00
2023-02-23T09:45:50.787Z,99895.41
2023-02-23T09:47:14.264Z,99901.41
2023-02-23T09:48:19.765Z,99901.84
2023-02-23T09:49:25.686Z,99898.81
2023-02-23T09:50:31.491Z,99896.63
2023-02-23T09:51:39.001Z,99902.44
2023-02-23T09:52:45.484Z,99904.47
2023-02-23T09:53:56.936Z,99898.03
2023-02-23T09:54:59.000Z,99898.41
2023-02-23T09:56:03.386Z,99897.62
2023-02-23T09:57:14.726Z,99899.63
2023-02-23T09:58:24.942Z,99900.84
2023-02-23T09:59:28.852Z,99898.62
2023-02-23T10:00:35.251Z,99906.25
2023-02-23T10:01:49.232Z,99901.03
2023-02-23T10:03:06.529Z,99902.84
2023-02-23T10:04:29.197Z,99902.47
2023-02-23T10:05:35.061Z,99902.03
2023-02-23T10:06:40.059Z,99899.81
2023-02-23T10:07:55.940Z,99908.03
2023-02-23T10:09:16.073Z,99902.84
2023-02-23T10:10:21.293Z,99901.66
2023-02-23T10:11:38.756Z,99903.44
2023-02-23T10:13:04.785Z,99905.66
2023-02-23T10:14:25.514Z,99904.44
2023-02-23T10:15:58.172Z,99907.44
2023-02-23T10:17:32.850Z,99903.03
2023-02-23T10:18:47.408Z,99900.00
2023-02-23T10:20:01.685Z,99905.25
2023-02-23T10:21:30.176Z,99898.03
2023-02-23T10:22:35.610Z,99900.22
2023-02-23T10:23:57.162Z,99905.41
2023-02-23T10:25:13.193Z,99902.81
2023-02-23T10:26:20.431Z,99907.84
2023-02-23T10:27:29.239Z,99903.22
2023-02-23T10:28:36.285Z,99904.03
2023-02-23T10:29:48.058Z,99899.63
2023-02-23T10:30:52.973Z,99912.06
2023-02-23T10:31:59.998Z,99904.44
2023-02-23T10:33:17.092Z,99893.41
2023-02-23T10:34:19.088Z,99898.81
2023-02-23T10:35:23.573Z,99902.03
2023-02-23T10:36:34.432Z,99898.41
2023-02-23T10:37:38.011Z,99896.41
2023-02-23T10:38:40.110Z,99897.19
2023-02-23T10:39:42.787Z,99894.78
2023-02-23T10:40:55.858Z,99893.78
2023-02-23T10:42:06.336Z,99888.19
2023-02-23T10:43:12.652Z,99896.00
2023-02-23T10:44:24.520Z,99888.56
2023-02-23T10:45:27.501Z,99890.38
2023-02-23T10:46:40.497Z,99885.56
2023-02-23T10:47:42.535Z,99889.19
2023-02-23T10:48:45.545Z,99884.78
2023-02-23T10:49:55.523Z,99883.16
2023-02-23T10:51:02.969Z,99888.19
2023-02-23T10:52:07.455Z,99884.16
2023-02-23T10:53:24.198Z,99885.56
2023-02-23T10:54:47.689Z,99877.53
2023-02-23T10:56:10.990Z,99879.16
2023-02-23T10:57:26.464Z,99881.97
2023-02-23T10:58:28.980Z,99872.91
2023-02-23T10:59:31.230Z,99882.78
2023-02-23T11:00:37.058Z,99879.91
2023-02-23T11:02:00.445Z,99877.50
2023-02-23T11:03:19.143Z,99869.28
2023-02-23T11:04:25.563Z,99870.31
2023-02-23T11:05:35.554Z,99867.47
2023-02-23T11:06:39.664Z,99870.87
2023-02-23T11:07:41.589Z,99863.06
2023-02-23T11:08:43.791Z,99858.25
2023-02-23T11:09:47.762Z,99859.03
2023-02-23T11:10:59.549Z,99862.88
2023-02-23T11:12:29.590Z,99847.44
2023-02-23T11:13:41.255Z,99857.88
2023-02-23T11:14:43.343Z,99849.44
2023-02-23T11:15:50.795Z,99851.81
2023-02-23T11:16:53.533Z,99849.75
2023-02-23T11:18:04.450Z,99848.97
2023-02-23T11:19:22.939Z,99848.37
2023-02-23T11:20:41.758Z,99843.94
2023-02-23T11:21:51.874Z,99845.12
2023-02-23T11:22:59.012Z,99845.72
2023-02-23T11:24:33.817Z,99839.69
2023-02-23T11:25:36.316Z,99838.91
2023-02-23T11:26:41.211Z,99846.50
2023-02-23T11:27:51.479Z,99843.34
2023-02-23T11:28:57.484Z,99836.66
2023-02-23T11:30:06.206Z,99836.16
2023-02-23T11:31:19.656Z,99835.59
2023-02-23T11:32:31.356Z,99833.34
2023-02-23T11:33:36.129Z,99828.03
2023-02-23T11:34:40.847Z,99837.69
2023-02-23T11:35:42.816Z,99830.84
2023-02-23T11:36:45.047Z,99837.28
2023-02-23T11:37:48.112Z,99833.47
2023-02-23T11:39:23.598Z,99834.31
2023-02-23T11:40:31.824Z,99830.03
2023-02-23T11:41:37.127Z,99835.63
2023-02-23T11:42:54.950Z,99827.34
2023-02-23T11:43:58.875Z,99830.75
2023-02-23T11:45:15.946Z,99824.72
2023-02-23T11:46:23.042Z,99832.41
2023-02-23T11:47:26.262Z,99825.00
2023-02-23T11:48:49.311Z,99834.59
2023-02-23T11:49:51.757Z,99828.56
2023-02-23T11:50:54.902Z,99825.34
2023-02-23T11:51:59.419Z,99828.69
2023-02-23T11:53:28.535Z,99825.97
2023-02-23T11:54:34.329Z,99823.69
2023-02-23T11:55:37.852Z,99825.69
2023-02-23T11:56:39.724Z,99819.88
2023-02-23T11:57:41.901Z,99819.84
2023-02-23T11:58:47.842Z,99821.66
2023-02-23T11:59:51.385Z,99828.53
2023-02-23T12:01:12.325Z,99823.00
2023-02-23T12:02:23.151Z,99821.44
2023-02-23T12:03:28.768Z,99819.81
2023-02-23T12:04:37.418Z,99821.66
2023-02-23T12:05:39.543Z,99824.66
2023-02-23T12:06:41.847Z,99824.97
2023-02-23T12:08:09.215Z,99814.06
2023-02-23T12:09:32.747Z,99816.16
2023-02-23T12:10:46.076Z,99809.28
2023-02-23T12:12:14.003Z,99811.13
2023-02-23T12:13:41.510Z,99810.53
2023-02-23T12:14:53.438Z,99814.50
2023-02-23T12:16:13.936Z,99810.97
2023-02-23T12:17:25.534Z,99807.16
2023-02-23T12:18:43.407Z,99807.31
2023-02-23T12:20:11.046Z,99804.13
2023-02-23T12:21:19.014Z,99799.41
2023-02-23T12:22:27.387Z,99798.56
2023-02-23T12:23:34.860Z,99800.66
2023-02-23T12:24:39.590Z,99797.25
2023-02-23T12:26:04.283Z,99798.72
2023-02-23T12:27:14.561Z,99798.47
2023-02-23T12:28:58.809Z,99795.63
2023-02-23T12:30:06.282Z,99790.88
2023-02-23T12:31:29.995Z,99792.59
2023-02-23T12:32:40.597Z,99789.50
2023-02-23T12:33:48.703Z,99789.63
2023-02-23T12:34:59.210Z,99786.75
2023-02-23T12:36:30.039Z,99792.22
2023-02-23T12:37:45.257Z,99790.53
2023-02-23T12:38:56.282Z,99785.91
2023-02-23T12:40:07.345Z,99782.13
2023-02-23T12:41:15.069Z,99786.16
2023-02-23T12:42:30.942Z,99786.59
2023-02-23T12:43:51.512Z,99786.41
2023-02-23T12:45:01.822Z,99780.34
2023-02-23T12:46:16.401Z,99777.28
2023-02-23T12:47:31.971Z,99775.28
2023-02-23T12:48:52.834Z,99776.38
2023-02-23T12:50:13.515Z,99779.25
2023-02-23T12:51:40.755Z,99784.75
2023-02-23T12:52:53.936Z,99775.41
2023-02-23T12:53:55.851Z,99777.63
2023-02-23T12:54:57.811Z,99772.84
2023-02-23T12:56:22.177Z,99779.91
2023-02-23T12:57:32.446Z,99769.22
2023-02-23T12:58:57.357Z,99778.81
2023-02-23T13:00:33.026Z,99771.41
2023-02-23T13:01:43.857Z,99778.66
2023-02-23T13:03:06.065Z,99782.47
2023-02-23T13:04:26.969Z,99773.41
2023-02-23T13:05:34.380Z,99775.31
2023-02-23T13:06:45.177Z,99776.56
2023-02-23T13:08:11.589Z,99766.13
2023-02-23T13:09:48.283Z,99767.59
2023-02-23T13:10:50.122Z,99769.56
2023-02-23T13:12:07.286Z,99766.31
2023-02-23T13:13:41.062Z,99767.13
2023-02-23T13:15:09.419Z,99763.91
2023-02-23T13:16:14.040Z,99767.13
2023-02-23T13:17:33.074Z,99758.06
2023-02-23T13:18:52.874Z,99757.63
2023-02-23T13:20:03.289Z,99763.88
2023-02-23T13:21:17.535Z,99751.34
2023-02-23T13:22:28.659Z,99756.41